createdAt,value
2022-12-07T00:19:00.589Z,47.8
2022-12-07T00:39:00.584Z,47.9
2022-12-07T00:59:00.505Z,48.0
2022-12-07T01:19:00.500Z,48.1
2022-12-07T01:39:00.468Z,48.1
2022-12-07T01:59:00.452Z,48.2
2022-12-07T02:19:00.435Z,48.2
2022-12-07T02:39:00.386Z,48.2
2022-12-07T02:59:00.360Z,48.2
2022-12-07T03:19:00.339Z,48.3
2022-12-07T03:39:00.300Z,48.2
2022-12-07T03:59:00.313Z,48.3
2022-12-07T04:19:00.283Z,48.3
2022-12-07T04:39:00.261Z,48.0
2022-12-07T04:59:00.219Z,47.8
2022-12-07T05:19:00.194Z,47.8
2022-12-07T05:39:00.244Z,47.6
2022-12-07T05:59:00.148Z,47.6
2022-12-07T06:19:00.125Z,47.5
2022-12-07T06:39:00.134Z,47.4
2022-12-07T06:59:00.084Z,47.4
2022-12-07T07:19:00.160Z,47.5
2022-12-07T07:39:00.078Z,47.5
2022-12-07T07:59:00.004Z,47.5
2022-12-07T08:18:59.990Z,47.5
2022-12-07T08:38:59.945Z,47.5
2022-12-07T08:59:00.015Z,47.5
2022-12-07T09:18:59.915Z,47.5
2022-12-07T09:38:59.905Z,47.5
2022-12-07T09:59:00.024Z,47.5
2022-12-07T10:18:59.962Z,47.4
2022-12-07T10:38:59.804Z,47.4
2022-12-07T10:58:59.906Z,47.4
2022-12-07T11:18:59.923Z,47.4
2022-12-07T11:38:59.969Z,47.4
2022-12-07T11:58:59.846Z,47.4
2022-12-07T12:18:59.671Z,47.4
2022-12-07T12:38:59.728Z,47.4
2022-12-07T12:58:59.699Z,47.4
2022-12-07T13:18:59.764Z,47.5
2022-12-07T13:38:59.652Z,47.4
2022-12-07T13:58:59.609Z,47.3
2022-12-07T14:18:59.595Z,47.4
2022-12-07T14:38:59.595Z,47.4
2022-12-07T14:58:59.650Z,47.3
2022-12-07T15:18:59.544Z,47.2
2022-12-07T15:38:59.452Z,47.2
2022-12-07T15:58:59.420Z,47.1
2022-12-07T16:18:59.411Z,47.0
2022-12-07T16:38:59.353Z,47.0
2022-12-07T16:58:59.436Z,47.0
2022-12-07T17:18:59.396Z,47.0
2022-12-07T17:38:59.306Z,46.9
2022-12-07T17:58:59.338Z,46.9
2022-12-07T18:18:59.257Z,47.0
2022-12-07T18:38:59.237Z,46.8
2022-12-07T18:58:59.189Z,45.1
2022-12-07T19:18:59.151Z,45.4
2022-12-07T19:38:59.171Z,46.0
2022-12-07T19:58:59.151Z,46.1
2022-12-07T20:18:59.101Z,46.1
2022-12-07T20:38:59.075Z,46.1
2022-12-07T20:58:59.071Z,46.1
2022-12-07T21:18:59.010Z,46.0
2022-12-07T21:38:58.969Z,46.1
2022-12-07T21:58:58.983Z,46.2
2022-12-07T22:18:58.937Z,46.3
2022-12-07T22:38:59.006Z,46.5
2022-12-07T22:58:58.916Z,46.6
2022-12-07T23:18:58.862Z,46.7
2022-12-07T23:38:58.856Z,46.8
2022-12-07T23:58:58.834Z,46.8
